Time;durP1;ratioP1;P1;durP2;ratioP2;P2;SDS_P1;SDS_P2;PMS_P1;PMS_P2;Temp;Humidity;BMP_temperature;BMP_pressure;BME280_temperature;BME280_humidity;BME280_pressure;Samples;Min_cycle;Max_cycle;Signal;HPM_P1;HPM_P2
2023/08/27 00:01:50;;;;;;;1.85;1.35;;;14.70;99.90;;;;;;5037566;28;20174;-86
2023/08/27 00:04:16;;;;;;;4.32;1.70;;;14.80;99.90;;;;;;5037737;28;20181;-86
2023/08/27 00:06:42;;;;;;;6.72;1.48;;;14.80;99.90;;;;;;5055359;28;20177;-86
2023/08/27 00:09:07;;;;;;;6.45;1.70;;;14.90;99.90;;;;;;5055388;28;20181;-87
2023/08/27 00:11:33;;;;;;;2.83;1.30;;;14.90;99.90;;;;;;5037357;28;20240;-88
2023/08/27 00:13:59;;;;;;;2.63;1.30;;;15.00;99.90;;;;;;5037368;28;20181;-86
2023/08/27 00:16:24;;;;;;;3.72;1.38;;;15.00;99.90;;;;;;5037419;28;20174;-87
2023/08/27 00:18:50;;;;;;;3.10;1.42;;;15.00;99.90;;;;;;5037275;28;20263;-87
2023/08/27 00:21:16;;;;;;;2.35;1.40;;;15.10;99.90;;;;;;5055130;28;20177;-86
2023/08/27 00:23:41;;;;;;;4.25;1.52;;;15.10;99.90;;;;;;5036853;28;20265;-87
2023/08/27 00:26:07;;;;;;;4.80;1.38;;;15.10;99.90;;;;;;5037134;28;20174;-86
2023/08/27 00:28:33;;;;;;;2.78;1.40;;;15.00;99.90;;;;;;5037256;28;20818;-85
2023/08/27 00:31:03;;;;;;;4.50;1.58;;;15.10;99.90;;;;;;5037161;28;20170;-86
2023/08/27 00:33:30;;;;;;;4.10;1.55;;;15.10;99.90;;;;;;5055036;28;20177;-85
2023/08/27 00:35:56;;;;;;;4.07;1.30;;;15.20;99.90;;;;;;5036866;28;20273;-86
2023/08/27 00:38:21;;;;;;;1.45;1.10;;;15.20;99.90;;;;;;5036409;28;20618;-86
2023/08/27 00:40:47;;;;;;;2.20;1.50;;;15.30;99.90;;;;;;5054832;28;20212;-86
2023/08/27 00:43:13;;;;;;;3.05;1.55;;;15.30;99.90;;;;;;5036988;28;20634;-87
2023/08/27 00:45:39;;;;;;;2.30;1.40;;;15.30;99.90;;;;;;5036918;28;20193;-86
2023/08/27 00:48:06;;;;;;;2.50;1.50;;;15.30;99.90;;;;;;5036734;28;20174;-86
2023/08/27 00:50:33;;;;;;;2.28;1.40;;;15.30;99.90;;;;;;5054797;28;20178;-86
2023/08/27 00:52:59;;;;;;;2.58;1.50;;;15.40;99.90;;;;;;5036533;28;20169;-86
2023/08/27 00:55:25;;;;;;;3.72;1.85;;;15.40;99.90;;;;;;5054655;28;20185;-86
2023/08/27 00:57:52;;;;;;;3.03;1.50;;;15.40;99.90;;;;;;5054533;28;20178;-85
2023/08/27 01:00:19;;;;;;;3.75;1.38;;;15.40;99.90;;;;;;5036599;28;20210;-86
2023/08/27 01:02:46;;;;;;;1.92;1.40;;;15.40;99.90;;;;;;5036546;28;20266;-85
2023/08/27 01:05:13;;;;;;;3.15;1.48;;;15.40;99.90;;;;;;5036802;28;20185;-87
2023/08/27 01:07:59;;;;;;;3.10;1.33;;;15.40;99.90;;;;;;5036257;28;20196;-86
2023/08/27 01:10:47;;;;;;;3.22;1.55;;;15.50;99.90;;;;;;5054531;28;20242;-86
2023/08/27 01:13:38;;;;;;;1.63;1.40;;;15.50;99.90;;;;;;5036635;28;20369;-86
2023/08/27 01:16:05;;;;;;;3.72;1.23;;;15.40;99.90;;;;;;5043651;28;20185;-86
2023/08/27 01:18:33;;;;;;;1.83;1.35;;;15.50;99.90;;;;;;5036469;28;20186;-86
2023/08/27 01:21:00;;;;;;;7.72;1.50;;;15.50;99.90;;;;;;5036400;28;20251;-85
2023/08/27 01:23:29;;;;;;;1.67;1.33;;;15.50;99.90;;;;;;5036318;28;20550;-87
2023/08/27 01:25:55;;;;;;;1.92;1.40;;;15.50;99.90;;;;;;5036530;28;20180;-86
2023/08/27 01:28:32;;;;;;;1.70;1.40;;;15.40;99.90;;;;;;5054505;28;20616;-87
2023/08/27 01:31:08;;;;;;;3.20;1.70;;;15.40;99.90;;;;;;5036506;28;20945;-87
2023/08/27 01:33:36;;;;;;;4.47;1.60;;;15.40;99.90;;;;;;5036424;28;20180;-87
2023/08/27 01:36:04;;;;;;;3.67;1.52;;;15.30;99.90;;;;;;5036528;28;20561;-90
2023/08/27 01:38:29;;;;;;;2.95;1.10;;;15.30;99.90;;;;;;5035783;28;20240;-86
2023/08/27 01:40:57;;;;;;;2.75;1.42;;;15.20;99.90;;;;;;5036305;28;20209;-85
2023/08/27 01:43:23;;;;;;;3.55;1.40;;;15.20;99.90;;;;;;5036365;28;20528;-87
2023/08/27 01:45:49;;;;;;;1.65;1.23;;;15.20;99.90;;;;;;5054135;28;20252;-87
2023/08/27 01:48:14;;;;;;;2.28;1.30;;;15.20;99.90;;;;;;5054298;28;20177;-87
2023/08/27 01:50:40;;;;;;;2.05;1.38;;;15.10;99.90;;;;;;5036623;28;20635;-87
2023/08/27 01:53:06;;;;;;;2.75;1.52;;;15.00;99.90;;;;;;5036289;28;20181;-87
2023/08/27 01:55:31;;;;;;;1.42;1.20;;;15.00;99.90;;;;;;5036635;28;20182;-93
2023/08/27 01:57:57;;;;;;;4.47;1.50;;;15.00;99.90;;;;;;5036725;28;20170;-93
2023/08/27 02:00:23;;;;;;;2.38;1.42;;;14.90;99.90;;;;;;5036693;28;20308;-88
2023/08/27 02:02:50;;;;;;;7.82;1.42;;;14.90;99.90;;;;;;5036383;28;20260;-86
2023/08/27 02:05:16;;;;;;;4.80;1.65;;;14.90;99.90;;;;;;5036211;28;20178;-88
2023/08/27 02:07:41;;;;;;;3.63;1.52;;;14.90;99.90;;;;;;5036254;28;20189;-90
2023/08/27 02:10:08;;;;;;;4.70;1.40;;;14.80;99.90;;;;;;5036726;28;20182;-88
2023/08/27 02:12:35;;;;;;;1.85;1.40;;;14.80;99.90;;;;;;5036543;28;20174;-90
2023/08/27 02:15:03;;;;;;;2.60;1.63;;;14.80;99.90;;;;;;5036015;28;20178;-86
2023/08/27 02:17:29;;;;;;;4.05;1.73;;;14.70;99.90;;;;;;5053952;28;20170;-87
2023/08/27 02:19:56;;;;;;;3.38;1.58;;;14.80;99.90;;;;;;5036687;28;20218;-93
2023/08/27 02:22:21;;;;;;;4.32;1.50;;;14.80;99.90;;;;;;5036400;28;20170;-89
2023/08/27 02:24:47;;;;;;;3.20;1.60;;;14.80;99.90;;;;;;5039389;28;20231;-87
2023/08/27 02:27:13;;;;;;;3.08;1.70;;;14.80;99.90;;;;;;5039350;28;20188;-86
2023/08/27 02:29:39;;;;;;;3.72;1.90;;;14.80;99.90;;;;;;5039119;28;20181;-87
2023/08/27 02:32:05;;;;;;;3.22;1.60;;;14.80;99.90;;;;;;5039447;28;20181;-87
2023/08/27 02:34:30;;;;;;;4.40;1.77;;;14.80;99.90;;;;;;5057249;28;20166;-87
2023/08/27 02:36:56;;;;;;;2.70;1.60;;;14.80;99.90;;;;;;5039210;28;20225;-85
2023/08/27 02:39:23;;;;;;;2.80;1.60;;;14.80;99.90;;;;;;5056994;28;20331;-86
2023/08/27 02:41:48;;;;;;;4.88;1.90;;;14.80;99.90;;;;;;5057304;28;20170;-85
2023/08/27 02:44:14;;;;;;;3.45;1.52;;;14.80;99.90;;;;;;5039430;28;20189;-86
2023/08/27 02:46:40;;;;;;;2.05;1.65;;;14.80;99.90;;;;;;5039276;28;20628;-86
2023/08/27 02:49:05;;;;;;;3.60;1.58;;;14.80;99.90;;;;;;5039102;28;20178;-86
2023/08/27 02:51:31;;;;;;;4.72;1.70;;;14.80;99.90;;;;;;5039198;28;20204;-86
2023/08/27 02:53:57;;;;;;;4.43;1.60;;;14.70;99.90;;;;;;5038984;28;20678;-86
2023/08/27 02:56:23;;;;;;;4.60;1.58;;;14.70;99.90;;;;;;5056839;28;20538;-88
2023/08/27 02:58:49;;;;;;;2.67;1.40;;;14.80;99.90;;;;;;5039235;28;20174;-88
2023/08/27 03:01:21;;;;;;;4.10;1.70;;;14.80;99.90;;;;;;5039206;28;20224;-86
2023/08/27 03:03:48;;;;;;;4.70;1.60;;;14.80;99.90;;;;;;5039072;28;20185;-87
2023/08/27 03:06:13;;;;;;;3.47;1.40;;;14.80;99.90;;;;;;5039015;28;20521;-86
2023/08/27 03:08:39;;;;;;;3.00;1.77;;;14.90;99.90;;;;;;5056409;28;20185;-87
2023/08/27 03:11:05;;;;;;;2.80;1.55;;;14.90;99.90;;;;;;5038994;28;20224;-86
2023/08/27 03:13:31;;;;;;;5.10;1.55;;;15.00;99.90;;;;;;5056703;28;20186;-86
2023/08/27 03:15:57;;;;;;;4.18;1.40;;;15.00;99.90;;;;;;5038774;28;20247;-87
2023/08/27 03:18:22;;;;;;;3.95;1.30;;;15.10;99.90;;;;;;5038878;28;20197;-86
2023/08/27 03:20:48;;;;;;;4.90;1.77;;;15.10;99.90;;;;;;5038513;28;20594;-87
2023/08/27 03:23:14;;;;;;;2.80;1.70;;;15.10;99.90;;;;;;5056314;28;20159;-86
2023/08/27 03:25:40;;;;;;;3.75;1.50;;;15.10;99.90;;;;;;5038773;28;20225;-87
2023/08/27 03:28:05;;;;;;;2.53;1.48;;;15.10;99.90;;;;;;5038480;28;20189;-87
2023/08/27 03:30:33;;;;;;;2.25;1.63;;;15.10;99.90;;;;;;5038584;28;20197;-87
2023/08/27 03:32:59;;;;;;;3.08;1.58;;;15.00;99.90;;;;;;5038994;28;20188;-87
2023/08/27 03:35:25;;;;;;;2.15;1.40;;;15.00;99.90;;;;;;5037342;28;20530;-87
2023/08/27 03:37:50;;;;;;;3.97;1.60;;;15.00;99.90;;;;;;5037962;28;20233;-87
2023/08/27 03:40:20;;;;;;;2.67;1.50;;;15.00;99.90;;;;;;5038401;28;20217;-90
2023/08/27 03:42:46;;;;;;;2.47;1.60;;;15.00;99.90;;;;;;5038389;28;20178;-88
2023/08/27 03:45:11;;;;;;;3.80;1.60;;;15.00;99.90;;;;;;5038605;28;20186;-87
2023/08/27 03:47:37;;;;;;;4.07;1.58;;;15.00;99.90;;;;;;5056051;28;20909;-88
2023/08/27 03:50:04;;;;;;;2.97;1.33;;;15.10;99.90;;;;;;5055935;28;20185;-87
2023/08/27 03:52:30;;;;;;;3.20;1.35;;;15.10;99.90;;;;;;5037889;28;20178;-87
2023/08/27 03:54:56;;;;;;;3.13;1.30;;;15.00;99.90;;;;;;5037929;28;20584;-86
2023/08/27 03:57:22;;;;;;;2.33;1.45;;;15.00;99.90;;;;;;5038021;28;20177;-87
2023/08/27 03:59:47;;;;;;;2.03;1.50;;;15.00;99.90;;;;;;5055600;28;20328;-87
2023/08/27 04:02:14;;;;;;;1.45;1.30;;;15.00;99.90;;;;;;5037883;28;20216;-86
2023/08/27 04:04:40;;;;;;;3.45;1.60;;;15.00;99.90;;;;;;5037714;28;20272;-88
2023/08/27 04:07:05;;;;;;;4.10;1.58;;;15.00;99.90;;;;;;5037992;28;20340;-87
2023/08/27 04:09:31;;;;;;;2.85;1.73;;;15.00;99.90;;;;;;5037384;28;20185;-86
2023/08/27 04:11:57;;;;;;;6.60;1.50;;;15.00;99.90;;;;;;5055174;28;20166;-88
2023/08/27 04:14:23;;;;;;;2.40;1.38;;;15.00;99.90;;;;;;5037307;28;20186;-86
2023/08/27 04:16:48;;;;;;;2.60;1.40;;;15.10;99.90;;;;;;5037636;28;20192;-86
2023/08/27 04:19:14;;;;;;;4.18;1.48;;;15.00;99.90;;;;;;5055193;28;20699;-86
2023/08/27 04:21:40;;;;;;;3.70;1.38;;;15.00;99.90;;;;;;5037423;28;20173;-87
2023/08/27 04:24:06;;;;;;;2.65;1.42;;;15.10;99.90;;;;;;5055025;28;20162;-86
2023/08/27 04:26:32;;;;;;;3.33;1.80;;;15.10;99.90;;;;;;5055212;28;20499;-86
2023/08/27 04:28:57;;;;;;;3.38;1.55;;;15.00;99.90;;;;;;5055084;28;20180;-86
2023/08/27 04:31:23;;;;;;;1.52;1.30;;;15.00;99.90;;;;;;5055024;28;20182;-86
2023/08/27 04:33:49;;;;;;;3.05;1.50;;;15.00;99.90;;;;;;5055215;28;20494;-86
2023/08/27 04:36:16;;;;;;;3.63;1.60;;;15.00;99.90;;;;;;5037051;28;20182;-86
2023/08/27 04:38:41;;;;;;;2.25;1.75;;;15.00;99.90;;;;;;5054456;28;20229;-85
2023/08/27 04:41:07;;;;;;;2.85;1.55;;;15.00;99.90;;;;;;5037012;28;20583;-86
2023/08/27 04:43:33;;;;;;;2.70;1.73;;;15.00;99.90;;;;;;5037007;28;20185;-86
2023/08/27 04:45:59;;;;;;;3.15;1.77;;;15.10;99.90;;;;;;5054402;28;20181;-84
2023/08/27 04:48:24;;;;;;;1.60;1.45;;;15.10;99.90;;;;;;5036923;28;20182;-85
2023/08/27 04:50:51;;;;;;;4.97;1.38;;;15.10;99.90;;;;;;5037002;28;20182;-85
2023/08/27 04:53:17;;;;;;;7.68;1.80;;;15.10;99.90;;;;;;5036151;28;20224;-85
2023/08/27 04:55:43;;;;;;;1.85;1.52;;;15.10;99.90;;;;;;5036804;28;20189;-85
2023/08/27 04:58:11;;;;;;;2.22;1.70;;;15.00;99.90;;;;;;5036759;28;20572;-85
2023/08/27 05:00:36;;;;;;;3.22;1.65;;;15.10;99.90;;;;;;5036658;28;20205;-85
2023/08/27 05:03:02;;;;;;;4.57;1.73;;;15.10;99.90;;;;;;5053186;28;20178;-86
2023/08/27 05:05:28;;;;;;;2.38;1.50;;;15.20;99.90;;;;;;5036714;28;20235;-86
2023/08/27 05:07:54;;;;;;;3.83;1.50;;;15.20;99.90;;;;;;5036370;28;20565;-85
2023/08/27 05:10:20;;;;;;;3.13;1.60;;;15.20;99.90;;;;;;5036621;28;20181;-86
2023/08/27 05:12:46;;;;;;;3.47;1.60;;;15.30;99.90;;;;;;5036908;28;20209;-86
2023/08/27 05:15:12;;;;;;;1.85;1.60;;;15.40;99.90;;;;;;5036553;28;20194;-87
2023/08/27 05:17:38;;;;;;;2.85;1.30;;;15.40;99.90;;;;;;5054499;28;20166;-86
2023/08/27 05:20:04;;;;;;;1.70;1.38;;;15.50;99.90;;;;;;5036626;28;20227;-87
2023/08/27 05:22:30;;;;;;;4.53;1.80;;;15.50;99.90;;;;;;5037108;28;20187;-89
2023/08/27 05:24:56;;;;;;;2.08;1.50;;;15.50;99.90;;;;;;5036511;28;20181;-87
2023/08/27 05:27:21;;;;;;;4.07;1.40;;;15.60;99.90;;;;;;5054510;28;20165;-88
2023/08/27 05:29:47;;;;;;;1.88;1.40;;;15.60;99.90;;;;;;5037086;28;20182;-89
2023/08/27 05:32:13;;;;;;;1.83;1.33;;;15.60;99.90;;;;;;5036656;28;20343;-85
2023/08/27 05:34:38;;;;;;;3.08;1.80;;;15.70;99.90;;;;;;5054333;28;20162;-88
2023/08/27 05:37:04;;;;;;;2.92;1.50;;;15.70;99.90;;;;;;5036097;28;20283;-87
2023/08/27 05:39:30;;;;;;;3.33;1.60;;;15.70;99.90;;;;;;5036115;28;20233;-88
2023/08/27 05:41:57;;;;;;;2.88;1.30;;;15.70;99.90;;;;;;5054514;28;20178;-92
2023/08/27 05:44:23;;;;;;;3.83;1.50;;;15.60;99.90;;;;;;5036723;28;20548;-87
2023/08/27 05:46:48;;;;;;;2.15;1.40;;;15.70;99.90;;;;;;5036364;28;20182;-85
2023/08/27 05:49:14;;;;;;;2.67;1.48;;;15.70;99.90;;;;;;5036344;28;20186;-90
2023/08/27 05:51:41;;;;;;;3.17;1.40;;;15.70;99.90;;;;;;5036350;28;20212;-86
2023/08/27 05:54:07;;;;;;;1.73;1.42;;;15.80;99.90;;;;;;5036146;28;20174;-90
2023/08/27 05:56:33;;;;;;;3.30;1.40;;;15.70;99.90;;;;;;5054248;28;20234;-86
2023/08/27 05:58:58;;;;;;;4.72;1.65;;;15.80;99.90;;;;;;5038170;28;20562;-87
2023/08/27 06:01:24;;;;;;;3.42;1.50;;;15.80;99.90;;;;;;5040111;28;20181;-85
2023/08/27 06:03:50;;;;;;;2.95;1.58;;;15.80;99.90;;;;;;5039893;28;20162;-85
2023/08/27 06:06:16;;;;;;;3.47;1.70;;;15.80;99.90;;;;;;5057966;28;20260;-86
2023/08/27 06:08:41;;;;;;;2.55;1.75;;;15.80;99.90;;;;;;5056650;28;20745;-87
2023/08/27 06:11:08;;;;;;;1.52;1.20;;;15.90;99.90;;;;;;5059700;28;20169;-85
2023/08/27 06:13:34;;;;;;;2.60;1.50;;;15.90;99.90;;;;;;5077737;28;20169;-88
2023/08/27 06:16:00;;;;;;;3.17;1.45;;;15.90;99.90;;;;;;5059858;28;20715;-87
2023/08/27 06:18:25;;;;;;;3.67;1.73;;;15.90;99.90;;;;;;5059748;28;20181;-86
2023/08/27 06:20:51;;;;;;;2.55;1.58;;;16.00;99.90;;;;;;5059635;28;20621;-87
2023/08/27 06:23:18;;;;;;;3.40;1.58;;;16.00;99.90;;;;;;5059383;28;20169;-86
2023/08/27 06:25:44;;;;;;;3.05;1.60;;;16.00;99.90;;;;;;5077919;28;20169;-87
2023/08/27 06:28:10;;;;;;;2.33;1.42;;;16.10;99.90;;;;;;5077750;28;20219;-91
2023/08/27 06:30:41;;;;;;;4.07;1.58;;;16.10;99.90;;;;;;5059753;28;20177;-87
2023/08/27 06:33:09;;;;;;;3.67;1.77;;;16.10;99.90;;;;;;5059340;28;20193;-86
2023/08/27 06:35:35;;;;;;;3.78;1.35;;;16.20;99.90;;;;;;5059353;28;20178;-86
2023/08/27 06:38:01;;;;;;;2.22;1.60;;;16.20;99.90;;;;;;5047271;28;20258;-87
2023/08/27 06:40:28;;;;;;;6.18;1.60;;;16.20;99.90;;;;;;5039531;28;20618;-90
2023/08/27 06:42:55;;;;;;;3.03;1.30;;;16.20;99.90;;;;;;5039799;28;20189;-91
2023/08/27 06:45:22;;;;;;;2.58;1.30;;;16.30;99.90;;;;;;5039766;28;20209;-89
2023/08/27 06:47:48;;;;;;;2.70;1.40;;;16.30;99.90;;;;;;5057425;28;20260;-86
2023/08/27 06:50:13;;;;;;;3.55;1.60;;;16.30;99.90;;;;;;5039751;28;20221;-86
2023/08/27 06:52:40;;;;;;;3.47;1.60;;;16.40;99.90;;;;;;5057387;28;20170;-86
2023/08/27 06:55:06;;;;;;;2.75;1.30;;;16.40;99.90;;;;;;5039390;28;20170;-89
2023/08/27 06:57:33;;;;;;;3.35;1.73;;;16.40;99.90;;;;;;5039452;28;20178;-86
2023/08/27 07:00:00;;;;;;;2.35;1.50;;;16.50;99.90;;;;;;5039341;28;20263;-88
2023/08/27 07:02:27;;;;;;;2.28;1.50;;;16.50;99.90;;;;;;5039435;28;20181;-92
2023/08/27 07:04:55;;;;;;;4.32;1.63;;;16.50;99.90;;;;;;5057454;28;20245;-91
2023/08/27 07:07:21;;;;;;;5.00;2.00;;;16.60;99.90;;;;;;5039246;28;20221;-92
2023/08/27 07:09:46;;;;;;;2.40;1.40;;;16.70;99.90;;;;;;5056710;28;20197;-88
2023/08/27 07:12:12;;;;;;;3.25;1.60;;;16.90;99.90;;;;;;5057346;28;20950;-88
2023/08/27 07:14:38;;;;;;;1.58;1.38;;;17.00;99.90;;;;;;5057200;28;20633;-90
2023/08/27 07:17:04;;;;;;;2.88;1.60;;;17.00;99.90;;;;;;5039130;28;20189;-90
2023/08/27 07:19:29;;;;;;;3.20;1.48;;;17.10;99.90;;;;;;5039034;28;20213;-87
2023/08/27 07:21:55;;;;;;;2.72;1.50;;;17.10;99.90;;;;;;5056806;28;20170;-91
2023/08/27 07:24:22;;;;;;;4.05;1.50;;;17.00;99.90;;;;;;5056974;28;20225;-92
2023/08/27 07:26:48;;;;;;;3.45;1.60;;;17.10;99.90;;;;;;5039247;28;20181;-89
2023/08/27 07:29:13;;;;;;;2.35;1.35;;;17.10;99.90;;;;;;5056777;28;20182;-87
2023/08/27 07:31:39;;;;;;;2.45;1.40;;;17.10;99.90;;;;;;5039097;28;20504;-90
2023/08/27 07:34:05;;;;;;;3.35;1.77;;;17.20;99.90;;;;;;5038988;28;20182;-86
2023/08/27 07:36:31;;;;;;;1.63;1.30;;;17.30;99.90;;;;;;5056452;28;20181;-89
2023/08/27 07:38:57;;;;;;;7.68;1.90;;;17.30;99.90;;;;;;5055894;28;20225;-90
2023/08/27 07:41:23;;;;;;;2.72;1.48;;;17.40;99.90;;;;;;5038832;28;20304;-90
2023/08/27 07:43:49;;;;;;;1.70;1.48;;;17.40;99.90;;;;;;5038987;28;20257;-92
2023/08/27 07:46:15;;;;;;;3.92;1.50;;;17.50;99.90;;;;;;5039002;28;20277;-88
2023/08/27 07:48:40;;;;;;;3.28;1.58;;;17.60;99.90;;;;;;5038581;28;20197;-89
2023/08/27 07:51:06;;;;;;;2.42;1.23;;;17.60;99.90;;;;;;5056653;28;20300;-87
2023/08/27 07:53:32;;;;;;;2.65;1.60;;;17.60;99.90;;;;;;5055806;28;20169;-89
2023/08/27 07:55:57;;;;;;;2.30;1.50;;;17.60;99.90;;;;;;5038626;28;20236;-89
2023/08/27 07:58:23;;;;;;;3.50;1.20;;;17.70;99.90;;;;;;5037801;28;20269;-88
2023/08/27 08:01:00;;;;;;;3.33;1.38;;;17.80;99.90;;;;;;5037597;28;20217;-87
2023/08/27 08:03:26;;;;;;;2.13;1.48;;;17.90;99.90;;;;;;5055593;28;20581;-90
2023/08/27 08:05:52;;;;;;;2.97;1.60;;;17.90;99.90;;;;;;5037944;28;20178;-86
2023/08/27 08:08:18;;;;;;;2.65;1.48;;;18.00;99.90;;;;;;5037399;28;20188;-87
2023/08/27 08:10:43;;;;;;;2.17;1.35;;;18.00;99.90;;;;;;5055498;28;20178;-86
2023/08/27 08:13:09;;;;;;;3.75;1.40;;;18.00;99.90;;;;;;5055556;28;20578;-87
2023/08/27 08:15:35;;;;;;;2.50;1.45;;;17.90;99.90;;;;;;5037767;28;20166;-85
2023/08/27 08:18:02;;;;;;;2.85;1.38;;;17.90;99.90;;;;;;5055440;28;20174;-86
2023/08/27 08:20:27;;;;;;;2.40;1.40;;;17.80;99.90;;;;;;5037003;28;20241;-86
2023/08/27 08:22:53;;;;;;;6.25;1.70;;;17.70;99.90;;;;;;5055041;28;20197;-85
2023/08/27 08:25:21;;;;;;;2.63;1.30;;;17.70;99.90;;;;;;5037311;28;20166;-87
2023/08/27 08:27:47;;;;;;;1.77;1.35;;;17.60;99.90;;;;;;5055221;28;20181;-88
2023/08/27 08:30:13;;;;;;;3.05;1.42;;;17.50;99.90;;;;;;5055198;28;20178;-86
2023/08/27 08:32:39;;;;;;;3.33;1.40;;;17.50;99.90;;;;;;5055130;28;20170;-86
2023/08/27 08:35:05;;;;;;;2.90;1.60;;;17.40;99.90;;;;;;5037317;28;20170;-89
2023/08/27 08:37:31;;;;;;;3.17;1.45;;;17.40;99.90;;;;;;5037017;28;20225;-86
2023/08/27 08:39:56;;;;;;;5.00;1.63;;;17.50;99.90;;;;;;5036677;28;20202;-88
2023/08/27 08:42:56;;;;;;;4.63;1.73;;;17.60;99.90;;;;;;5054875;28;20197;-86
2023/08/27 08:45:32;;;;;;;3.95;1.80;;;17.70;99.90;;;;;;5054856;28;20162;-87
2023/08/27 08:48:01;;;;;;;2.92;1.60;;;17.80;99.90;;;;;;5036990;28;20523;-87
2023/08/27 08:50:32;;;;;;;2.20;1.50;;;17.90;99.90;;;;;;5036920;28;20180;-86
2023/08/27 08:53:02;;;;;;;4.72;1.70;;;18.10;99.90;;;;;;5036860;28;20178;-87
2023/08/27 08:55:30;;;;;;;2.88;1.58;;;18.20;99.90;;;;;;5054501;28;20511;-85
2023/08/27 08:58:10;;;;;;;2.67;1.50;;;18.30;99.90;;;;;;5036584;28;20178;-87
2023/08/27 09:00:36;;;;;;;4.32;1.83;;;18.40;99.90;;;;;;5054057;28;20209;-88
2023/08/27 09:03:03;;;;;;;2.97;1.60;;;18.40;99.90;;;;;;5054442;28;20257;-85
2023/08/27 09:05:33;;;;;;;2.80;1.73;;;18.40;99.90;;;;;;5054564;28;20600;-85
2023/08/27 09:08:00;;;;;;;3.53;1.58;;;18.40;99.90;;;;;;5036621;28;20189;-86
2023/08/27 09:10:27;;;;;;;5.25;1.80;;;18.40;99.90;;;;;;5036689;28;20181;-86
2023/08/27 09:12:56;;;;;;;2.80;1.48;;;18.50;99.90;;;;;;5054499;28;20235;-87
2023/08/27 09:15:22;;;;;;;4.38;1.50;;;18.50;99.90;;;;;;5054609;28;20240;-86
2023/08/27 09:17:48;;;;;;;2.47;1.67;;;18.50;99.90;;;;;;5036628;28;20178;-84
2023/08/27 09:20:14;;;;;;;3.58;1.80;;;18.60;99.90;;;;;;5036445;28;20209;-86
2023/08/27 09:22:41;;;;;;;3.92;1.60;;;18.70;99.90;;;;;;5036439;28;20173;-86
2023/08/27 09:25:09;;;;;;;3.53;2.08;;;18.70;99.90;;;;;;5036268;28;20180;-90
2023/08/27 09:27:35;;;;;;;3.50;1.83;;;18.90;99.90;;;;;;5036509;28;20197;-90
2023/08/27 09:30:02;;;;;;;4.78;1.67;;;18.90;99.90;;;;;;5036436;28;20231;-89
2023/08/27 09:32:29;;;;;;;7.78;2.10;;;18.90;99.90;;;;;;5037799;28;20280;-84
2023/08/27 09:35:00;;;;;;;2.50;1.67;;;18.90;99.90;;;;;;5040698;28;20525;-85
2023/08/27 09:37:38;;;;;;;2.78;1.83;;;19.00;99.90;;;;;;5040291;28;20287;-85
2023/08/27 09:40:11;;;;;;;4.10;1.80;;;19.00;99.90;;;;;;5040135;28;20209;-84
2023/08/27 09:42:38;;;;;;;4.95;1.90;;;19.00;99.90;;;;;;5040509;28;20181;-84
2023/08/27 09:45:05;;;;;;;3.00;1.73;;;19.10;99.90;;;;;;5040663;28;20236;-85
2023/08/27 09:47:33;;;;;;;2.53;2.00;;;19.10;99.90;;;;;;5058159;28;20170;-88
2023/08/27 09:50:14;;;;;;;4.90;1.85;;;19.30;99.90;;;;;;5040315;28;20182;-86
2023/08/27 09:52:41;;;;;;;5.38;2.10;;;19.40;99.90;;;;;;5040180;28;20170;-84
2023/08/27 09:55:16;;;;;;;5.25;2.15;;;19.50;99.90;;;;;;5039718;28;20299;-84
2023/08/27 09:57:53;;;;;;;3.60;2.20;;;19.50;99.90;;;;;;5039997;28;20173;-86
2023/08/27 10:00:21;;;;;;;4.07;1.80;;;19.70;99.90;;;;;;5039939;28;20232;-86
2023/08/27 10:02:50;;;;;;;4.45;1.83;;;19.80;99.90;;;;;;5039846;28;20605;-85
2023/08/27 10:05:16;;;;;;;4.07;1.70;;;19.90;99.90;;;;;;5040241;28;20181;-85
2023/08/27 10:07:41;;;;;;;4.15;1.98;;;20.10;99.90;;;;;;5057808;28;20177;-84
2023/08/27 10:10:07;;;;;;;3.88;1.98;;;20.30;99.90;;;;;;5057565;28;20249;-85
2023/08/27 10:12:35;;;;;;;4.50;1.75;;;20.30;99.90;;;;;;5039893;28;20185;-85
2023/08/27 10:15:03;;;;;;;3.60;1.70;;;20.40;99.90;;;;;;5039786;28;20166;-86
2023/08/27 10:17:30;;;;;;;4.43;1.77;;;20.50;99.90;;;;;;5039785;28;20177;-85
2023/08/27 10:19:56;;;;;;;4.30;1.85;;;20.60;99.90;;;;;;5057571;28;20505;-86
2023/08/27 10:22:22;;;;;;;3.78;1.88;;;20.50;99.90;;;;;;5039572;28;20581;-84
2023/08/27 10:24:49;;;;;;;3.95;1.80;;;20.50;99.90;;;;;;5057167;28;20198;-87
2023/08/27 10:27:17;;;;;;;4.35;2.00;;;20.60;99.90;;;;;;5039736;28;20193;-85
2023/08/27 10:29:45;;;;;;;2.53;1.80;;;20.60;99.90;;;;;;5039303;28;20486;-85
2023/08/27 10:32:10;;;;;;;2.97;2.00;;;20.60;99.90;;;;;;5057435;28;20174;-85
2023/08/27 10:34:36;;;;;;;3.00;1.90;;;20.60;99.90;;;;;;5039529;28;20177;-85
2023/08/27 10:37:07;;;;;;;5.22;1.98;;;20.80;99.90;;;;;;5057041;28;20671;-84
2023/08/27 10:39:35;;;;;;;4.13;1.60;;;20.90;99.90;;;;;;5039035;28;20287;-90
2023/08/27 10:42:00;;;;;;;4.07;1.50;;;21.00;99.90;;;;;;5039509;28;20174;-87
2023/08/27 10:44:26;;;;;;;4.53;1.70;;;21.30;99.90;;;;;;5038884;28;20507;-87
2023/08/27 10:47:08;;;;;;;3.75;1.67;;;21.50;99.90;;;;;;5039283;28;20585;-86
2023/08/27 10:49:37;;;;;;;4.55;1.63;;;21.70;99.90;;;;;;5039106;28;20631;-85
2023/08/27 10:52:19;;;;;;;3.90;1.58;;;21.80;99.90;;;;;;5039059;28;20239;-84
2023/08/27 10:54:46;;;;;;;3.65;1.73;;;21.90;99.90;;;;;;5038896;28;20183;-83
2023/08/27 10:57:17;;;;;;;4.20;2.05;;;21.90;99.90;;;;;;5038980;28;20200;-86
2023/08/27 10:59:42;;;;;;;5.85;1.70;;;21.80;99.90;;;;;;5038419;28;20637;-85
2023/08/27 11:02:08;;;;;;;3.28;1.50;;;21.80;99.90;;;;;;5056896;28;20173;-90
2023/08/27 11:04:36;;;;;;;4.90;1.98;;;21.80;99.90;;;;;;5038429;28;20235;-87
2023/08/27 11:07:15;;;;;;;5.95;1.75;;;21.80;99.90;;;;;;5039042;28;20227;-86
2023/08/27 11:09:55;;;;;;;4.03;1.88;;;21.80;99.90;;;;;;5038454;28;20188;-89
2023/08/27 11:12:26;;;;;;;4.82;2.20;;;21.80;99.90;;;;;;5029781;28;20188;-86
2023/08/27 11:15:13;;;;;;;3.00;1.70;;;21.80;99.90;;;;;;5037976;28;20189;-83
2023/08/27 11:17:40;;;;;;;2.72;1.67;;;21.90;99.90;;;;;;5039323;28;20281;-84
2023/08/27 11:20:23;;;;;;;3.35;1.90;;;22.00;99.90;;;;;;5050005;28;20248;-85
2023/08/27 11:23:00;;;;;;;5.43;2.03;;;22.00;99.90;;;;;;5042988;28;20192;-85
2023/08/27 11:25:30;;;;;;;7.75;1.85;;;22.10;99.90;;;;;;5045165;28;20635;-87
2023/08/27 11:27:59;;;;;;;5.22;1.77;;;22.10;99.90;;;;;;5046498;28;20619;-84
2023/08/27 11:30:25;;;;;;;2.42;1.92;;;22.00;99.90;;;;;;5065186;28;20192;-84
2023/08/27 11:32:53;;;;;;;3.42;1.92;;;21.80;99.90;;;;;;5044497;28;20181;-86
2023/08/27 11:35:28;;;;;;;5.75;2.05;;;21.70;99.90;;;;;;5041834;28;20680;-85
2023/08/27 11:37:54;;;;;;;2.95;1.65;;;21.70;99.90;;;;;;5067789;28;20256;-88
2023/08/27 11:40:22;;;;;;;2.88;1.70;;;21.70;99.90;;;;;;5034538;28;20295;-85
2023/08/27 11:43:04;;;;;;;6.25;1.95;;;21.80;99.90;;;;;;5046607;28;20195;-87
2023/08/27 11:45:35;;;;;;;5.57;1.95;;;21.90;99.90;;;;;;5044872;28;20184;-86
2023/08/27 11:50:42;;;;;;;2.30;1.40;;;22.50;99.90;;;;;;5400109;22;20266;-85
2023/08/27 11:53:10;;;;;;;2.17;1.40;;;22.60;99.90;;;;;;5021313;28;20257;-85
2023/08/27 11:55:36;;;;;;;4.82;1.70;;;22.70;99.90;;;;;;5004556;28;20194;-86
2023/08/27 11:58:05;;;;;;;2.35;1.40;;;22.80;99.90;;;;;;5014675;28;20195;-87
2023/08/27 12:00:32;;;;;;;2.65;1.60;;;22.60;99.90;;;;;;5034663;28;20214;-84
2023/08/27 12:03:07;;;;;;;4.05;1.63;;;22.50;99.90;;;;;;5012947;28;20271;-85
2023/08/27 12:05:33;;;;;;;4.40;1.50;;;22.40;99.90;;;;;;5005287;28;20389;-84
2023/08/27 12:08:07;;;;;;;1.75;1.25;;;22.20;99.90;;;;;;5014982;28;20183;-86
2023/08/27 12:10:41;;;;;;;3.78;1.40;;;22.00;99.90;;;;;;5016207;28;20641;-86
2023/08/27 12:13:08;;;;;;;3.13;1.42;;;21.90;99.90;;;;;;5016348;28;20182;-86
2023/08/27 12:15:35;;;;;;;3.13;1.45;;;21.70;99.90;;;;;;5016182;28;20193;-86
2023/08/27 12:18:02;;;;;;;3.28;1.20;;;21.60;99.90;;;;;;5013607;28;20626;-87
2023/08/27 12:20:31;;;;;;;2.35;1.60;;;21.50;99.90;;;;;;5015770;28;20634;-85
2023/08/27 12:23:12;;;;;;;1.98;1.33;;;21.40;99.90;;;;;;5034880;28;20174;-85
2023/08/27 12:25:53;;;;;;;2.10;1.33;;;21.30;99.90;;;;;;5013638;28;20186;-83
2023/08/27 12:28:21;;;;;;;3.42;1.40;;;21.10;99.90;;;;;;5016834;28;20190;-86
2023/08/27 12:30:52;;;;;;;5.50;1.13;;;21.00;99.90;;;;;;5016434;28;20199;-88
2023/08/27 12:33:18;;;;;;;2.05;0.95;;;20.90;99.90;;;;;;5033389;28;20209;-85
2023/08/27 12:35:45;;;;;;;8.05;0.90;;;20.50;99.90;;;;;;5013517;28;20288;-86
2023/08/27 12:38:10;;;;;;;2.22;1.13;;;20.20;99.90;;;;;;5015978;28;20195;-88
2023/08/27 12:40:36;;;;;;;2.45;1.20;;;19.90;99.90;;;;;;5014020;28;20242;-86
2023/08/27 12:43:03;;;;;;;3.50;1.08;;;19.60;99.90;;;;;;5017681;28;20272;-88
2023/08/27 12:45:29;;;;;;;1.52;0.80;;;19.30;99.90;;;;;;5015897;28;20509;-86
2023/08/27 12:47:55;;;;;;;2.78;1.10;;;19.10;99.90;;;;;;5017086;28;20495;-87
2023/08/27 12:50:21;;;;;;;3.63;1.20;;;18.90;99.90;;;;;;5013144;28;20235;-87
2023/08/27 12:52:47;;;;;;;3.08;0.98;;;18.80;99.90;;;;;;5015526;28;20183;-85